Time;durP1;ratioP1;P1;durP2;ratioP2;P2;SDS_P1;SDS_P2;PMS_P1;PMS_P2;Temp;Humidity;BMP_temperature;BMP_pressure;BME280_temperature;BME280_humidity;BME280_pressure;Samples;Min_cycle;Max_cycle;Signal;HPM_P1;HPM_P2
2023/10/05 00:02:03;;;;;;;9.80;8.90;;;9.20;99.90;;;;;;5011568;28;20212;-79
2023/10/05 00:04:40;;;;;;;9.67;8.90;;;9.10;99.90;;;;;;5008221;28;20262;-79
2023/10/05 00:07:10;;;;;;;9.83;8.97;;;9.00;99.90;;;;;;5014329;28;20211;-79
2023/10/05 00:09:38;;;;;;;9.73;8.93;;;9.00;99.90;;;;;;5014755;28;20212;-79
2023/10/05 00:12:07;;;;;;;9.90;9.07;;;9.00;99.90;;;;;;5014868;28;20232;-78
2023/10/05 00:14:36;;;;;;;9.63;8.90;;;9.00;99.90;;;;;;5014566;28;20701;-79
2023/10/05 00:17:05;;;;;;;9.67;8.87;;;8.90;99.90;;;;;;5013914;28;20733;-79
2023/10/05 00:19:35;;;;;;;10.20;9.20;;;9.00;99.90;;;;;;5015085;28;20196;-79
2023/10/05 00:22:02;;;;;;;10.03;9.23;;;9.00;99.90;;;;;;5014338;28;20664;-79
2023/10/05 00:24:34;;;;;;;9.87;8.77;;;9.10;99.90;;;;;;5015941;28;20200;-78
2023/10/05 00:27:03;;;;;;;9.70;8.73;;;9.10;99.90;;;;;;5015053;28;20215;-78
2023/10/05 00:29:40;;;;;;;10.03;9.23;;;9.10;99.90;;;;;;5014501;28;20200;-79
2023/10/05 00:32:13;;;;;;;10.10;9.23;;;9.10;99.90;;;;;;5013781;28;20690;-79
2023/10/05 00:34:40;;;;;;;9.40;8.70;;;9.10;99.90;;;;;;5014214;28;20291;-79
2023/10/05 00:37:09;;;;;;;9.90;9.10;;;9.10;99.90;;;;;;5015535;28;20283;-79
2023/10/05 00:39:39;;;;;;;9.53;8.83;;;9.20;99.90;;;;;;5014392;28;20577;-79
2023/10/05 00:42:08;;;;;;;9.40;8.60;;;9.20;99.90;;;;;;5015487;28;20291;-79
2023/10/05 00:44:36;;;;;;;9.80;9.00;;;9.10;99.90;;;;;;5014187;28;20200;-79
2023/10/05 00:47:06;;;;;;;9.60;8.87;;;9.10;99.90;;;;;;5013868;28;20232;-79
2023/10/05 00:49:42;;;;;;;9.43;8.73;;;9.10;99.90;;;;;;5014402;28;20197;-79
2023/10/05 00:52:13;;;;;;;9.60;8.80;;;9.10;99.90;;;;;;5013651;28;20255;-79
2023/10/05 00:54:45;;;;;;;9.60;8.80;;;9.00;99.90;;;;;;5014169;28;20207;-79
2023/10/05 00:57:14;;;;;;;9.73;8.93;;;9.10;99.90;;;;;;5013761;28;20255;-79
2023/10/05 00:59:42;;;;;;;10.07;9.27;;;9.10;99.90;;;;;;5013521;28;20291;-78
2023/10/05 01:02:15;;;;;;;9.93;9.07;;;9.10;99.90;;;;;;5013326;28;20746;-79
2023/10/05 01:04:55;;;;;;;10.57;9.67;;;9.10;99.90;;;;;;5013954;28;20251;-79
2023/10/05 01:07:43;;;;;;;10.30;9.50;;;9.10;99.90;;;;;;5013786;28;20231;-79
2023/10/05 01:10:40;;;;;;;10.33;9.53;;;9.10;99.90;;;;;;5013666;28;20235;-79
2023/10/05 01:13:28;;;;;;;9.97;9.17;;;9.20;99.90;;;;;;5014231;28;20456;-79
2023/10/05 01:15:55;;;;;;;12.93;10.13;;;9.20;99.90;;;;;;5015007;28;20196;-79
2023/10/05 01:18:25;;;;;;;9.37;8.57;;;9.20;99.90;;;;;;5013461;28;20275;-79
2023/10/05 01:20:53;;;;;;;9.33;8.63;;;9.20;99.90;;;;;;5013546;28;20204;-79
2023/10/05 01:23:29;;;;;;;10.53;8.00;;;9.20;99.90;;;;;;5013398;28;20694;-79
2023/10/05 01:25:56;;;;;;;8.90;8.20;;;9.20;99.90;;;;;;5013836;28;20263;-79
2023/10/05 01:28:23;;;;;;;7.27;4.73;;;9.10;99.90;;;;;;5013522;28;20580;-79
2023/10/05 01:30:50;;;;;;;5.70;3.73;;;9.10;99.90;;;;;;5012934;28;20212;-79
2023/10/05 01:33:18;;;;;;;8.23;6.07;;;9.10;99.90;;;;;;5051699;22;20238;-76
2023/10/05 01:35:46;;;;;;;5.70;3.67;;;9.10;99.90;;;;;;5029614;28;20278;-76
2023/10/05 01:38:13;;;;;;;6.07;3.97;;;9.10;99.90;;;;;;5012791;28;20212;-75
2023/10/05 01:40:47;;;;;;;5.60;4.17;;;9.00;99.90;;;;;;5013792;28;20197;-76
2023/10/05 01:43:14;;;;;;;5.67;4.40;;;9.00;99.90;;;;;;5001753;28;20216;-76
2023/10/05 01:45:44;;;;;;;4.60;4.13;;;8.90;99.90;;;;;;5006209;28;20204;-76
2023/10/05 01:48:14;;;;;;;5.97;3.90;;;8.80;99.90;;;;;;5005185;28;20207;-75
2023/10/05 01:50:44;;;;;;;7.63;3.83;;;8.70;99.90;;;;;;5011500;28;20221;-75
2023/10/05 01:53:15;;;;;;;5.43;3.80;;;8.80;99.90;;;;;;5012013;28;20216;-75
2023/10/05 01:55:45;;;;;;;5.23;4.10;;;8.80;99.90;;;;;;5005982;28;20291;-76
2023/10/05 01:58:22;;;;;;;4.87;3.60;;;8.80;99.90;;;;;;5012851;28;20489;-76
2023/10/05 02:00:49;;;;;;;5.77;3.57;;;8.80;99.90;;;;;;4998774;28;20199;-75
2023/10/05 02:03:18;;;;;;;6.37;4.00;;;8.80;99.90;;;;;;5008997;28;20275;-76
2023/10/05 02:05:47;;;;;;;7.70;4.20;;;8.70;99.90;;;;;;5012147;28;20690;-75
2023/10/05 02:08:15;;;;;;;5.13;3.83;;;8.70;99.90;;;;;;5004982;28;20256;-76
2023/10/05 02:10:47;;;;;;;5.43;3.70;;;8.70;99.90;;;;;;5007857;28;20299;-76
2023/10/05 02:13:13;;;;;;;5.03;3.63;;;8.70;99.90;;;;;;5012443;28;20244;-78
2023/10/05 02:15:41;;;;;;;7.37;6.77;;;8.60;99.90;;;;;;4996926;28;20575;-77
2023/10/05 02:18:14;;;;;;;8.40;7.70;;;8.50;99.90;;;;;;4998800;28;20200;-78
2023/10/05 02:20:47;;;;;;;6.03;5.43;;;8.50;99.90;;;;;;4996397;28;20189;-78
2023/10/05 02:23:26;;;;;;;7.07;6.40;;;8.50;99.90;;;;;;5011215;28;20251;-75
2023/10/05 02:26:02;;;;;;;7.60;6.80;;;8.50;99.90;;;;;;4995282;28;20209;-78
2023/10/05 02:28:33;;;;;;;7.60;6.90;;;8.40;99.90;;;;;;5009092;28;20204;-77
2023/10/05 02:31:01;;;;;;;10.67;9.73;;;8.40;99.90;;;;;;4997958;28;20237;-77
2023/10/05 02:33:31;;;;;;;8.10;7.27;;;8.40;99.90;;;;;;5005614;28;20718;-77
2023/10/05 02:36:09;;;;;;;9.63;8.83;;;8.30;99.90;;;;;;5000497;28;20201;-75
2023/10/05 02:38:37;;;;;;;6.90;4.80;;;8.30;99.90;;;;;;5012350;28;20205;-77
2023/10/05 02:41:08;;;;;;;9.53;8.60;;;8.30;99.90;;;;;;5012609;28;20271;-79
2023/10/05 02:43:39;;;;;;;8.73;8.03;;;8.20;99.90;;;;;;5008179;28;20299;-77
2023/10/05 02:46:11;;;;;;;8.23;7.57;;;8.20;99.90;;;;;;5007003;28;20453;-77
2023/10/05 02:48:41;;;;;;;9.00;8.20;;;8.10;99.90;;;;;;5011376;28;20239;-76
2023/10/05 02:51:11;;;;;;;8.37;7.77;;;8.10;99.90;;;;;;5011360;28;20218;-77
2023/10/05 02:53:42;;;;;;;8.90;8.20;;;8.10;99.90;;;;;;5012029;28;20658;-79
2023/10/05 02:56:27;;;;;;;8.73;7.90;;;8.10;99.90;;;;;;5015509;28;20203;-78
2023/10/05 02:58:56;;;;;;;7.90;7.30;;;8.10;99.90;;;;;;5020392;28;20215;-78
2023/10/05 03:01:24;;;;;;;8.20;7.67;;;8.00;99.90;;;;;;5014548;28;20228;-77
2023/10/05 03:03:52;;;;;;;9.17;8.30;;;8.00;99.90;;;;;;5013641;28;20212;-78
2023/10/05 03:06:22;;;;;;;8.30;7.60;;;8.00;99.90;;;;;;5014251;28;20195;-78
2023/10/05 03:08:53;;;;;;;8.43;7.80;;;8.00;99.90;;;;;;5011579;28;20204;-78
2023/10/05 03:11:22;;;;;;;8.70;7.97;;;8.00;99.90;;;;;;5014572;28;20224;-78
2023/10/05 03:13:50;;;;;;;9.73;9.07;;;8.00;99.90;;;;;;5014794;28;20208;-77
2023/10/05 03:16:21;;;;;;;9.30;8.63;;;8.00;99.90;;;;;;5007538;28;20207;-77
2023/10/05 03:18:49;;;;;;;8.03;7.43;;;8.10;99.90;;;;;;5023317;28;20215;-79
2023/10/05 03:21:18;;;;;;;7.70;7.17;;;8.20;99.90;;;;;;5032368;28;20258;-76
2023/10/05 03:23:45;;;;;;;7.97;7.37;;;8.30;99.90;;;;;;5000685;28;20255;-78
2023/10/05 03:26:17;;;;;;;8.80;8.00;;;8.30;99.90;;;;;;5013697;28;20208;-77
2023/10/05 03:28:45;;;;;;;7.70;7.17;;;8.30;99.90;;;;;;5016524;28;20671;-79
2023/10/05 03:31:23;;;;;;;7.97;7.37;;;8.30;99.90;;;;;;5014798;28;20228;-78
2023/10/05 03:33:52;;;;;;;7.50;7.00;;;8.40;99.90;;;;;;5000328;28;20597;-75
2023/10/05 03:36:21;;;;;;;3.80;3.50;;;8.40;99.90;;;;;;5006584;28;20245;-75
2023/10/05 03:38:56;;;;;;;4.10;3.30;;;8.40;99.90;;;;;;5009946;28;20211;-75
2023/10/05 03:41:26;;;;;;;3.00;2.80;;;8.40;99.90;;;;;;5009209;28;20207;-75
2023/10/05 03:43:57;;;;;;;4.13;3.60;;;8.40;99.90;;;;;;5007860;28;20204;-75
2023/10/05 03:46:25;;;;;;;3.97;3.23;;;8.40;99.90;;;;;;5021176;28;20205;-74
2023/10/05 03:48:53;;;;;;;3.63;3.10;;;8.40;99.90;;;;;;4997860;28;20223;-74
2023/10/05 03:51:20;;;;;;;3.70;3.23;;;8.40;99.90;;;;;;5010635;28;20608;-72
2023/10/05 03:53:51;;;;;;;12.33;11.53;;;8.40;99.90;;;;;;5003490;28;20555;-74
2023/10/05 03:56:20;;;;;;;5.50;5.00;;;8.40;99.90;;;;;;4999521;28;20211;-74
2023/10/05 03:58:48;;;;;;;4.43;4.10;;;8.40;99.90;;;;;;5010890;28;20203;-72
2023/10/05 04:01:17;;;;;;;8.97;8.47;;;8.50;99.90;;;;;;5011661;28;20188;-75
2023/10/05 04:03:47;;;;;;;6.83;6.40;;;8.50;99.90;;;;;;5011113;28;20231;-74
2023/10/05 04:06:21;;;;;;;5.80;4.20;;;8.50;99.90;;;;;;5003931;28;20671;-74
2023/10/05 04:08:49;;;;;;;7.50;6.90;;;8.50;99.90;;;;;;4996609;28;20212;-74
2023/10/05 04:11:18;;;;;;;8.97;8.27;;;8.50;99.90;;;;;;4997082;28;20205;-74
2023/10/05 04:13:46;;;;;;;4.23;3.60;;;8.50;99.90;;;;;;4996599;28;20256;-74
2023/10/05 04:16:21;;;;;;;4.57;3.87;;;8.50;99.90;;;;;;5000314;28;20201;-74
2023/10/05 04:18:51;;;;;;;4.10;3.60;;;8.50;99.90;;;;;;5004217;28;20197;-74
2023/10/05 04:21:19;;;;;;;4.20;3.70;;;8.50;99.90;;;;;;4995772;28;20201;-74
2023/10/05 04:23:49;;;;;;;5.17;4.00;;;8.50;99.90;;;;;;4998356;28;20684;-74
2023/10/05 04:26:21;;;;;;;3.83;3.33;;;8.50;99.90;;;;;;4998257;28;20579;-74
2023/10/05 04:28:54;;;;;;;4.90;3.30;;;8.50;99.90;;;;;;4995683;28;20754;-74
2023/10/05 04:31:25;;;;;;;3.90;3.50;;;8.50;99.90;;;;;;5010841;28;20272;-74
2023/10/05 04:33:56;;;;;;;4.40;3.67;;;8.50;99.90;;;;;;4992307;28;20260;-74
2023/10/05 04:36:23;;;;;;;4.30;3.63;;;8.50;99.90;;;;;;5001295;28;20205;-74
2023/10/05 04:38:53;;;;;;;4.35;3.90;;;8.50;99.90;;;;;;4999342;28;20487;-75
2023/10/05 04:41:20;;;;;;;6.13;5.40;;;8.50;99.90;;;;;;5004672;28;20439;-74
2023/10/05 04:43:49;;;;;;;7.20;6.53;;;8.60;99.90;;;;;;5007848;28;20202;-75
2023/10/05 04:46:18;;;;;;;6.30;4.10;;;8.60;99.90;;;;;;5004843;28;20209;-75
2023/10/05 04:48:55;;;;;;;7.20;4.83;;;8.70;99.90;;;;;;5003238;28;20251;-75
2023/10/05 04:51:26;;;;;;;5.83;4.60;;;8.70;99.90;;;;;;5006732;28;20250;-75
2023/10/05 04:53:54;;;;;;;7.10;4.40;;;8.70;99.90;;;;;;5007135;28;20204;-72
2023/10/05 04:56:34;;;;;;;5.90;4.30;;;8.70;99.90;;;;;;5010476;28;20220;-74
2023/10/05 05:02:00;;;;;;;5.20;4.40;;;8.70;99.90;;;;;;4989027;28;20216;-74
2023/10/05 05:04:28;;;;;;;7.23;4.20;;;8.80;99.90;;;;;;5003184;28;20207;-74
2023/10/05 05:06:58;;;;;;;8.77;6.90;;;8.80;99.90;;;;;;5007880;28;20192;-73
2023/10/05 05:09:29;;;;;;;7.23;6.33;;;8.80;99.90;;;;;;5012724;28;20671;-72
2023/10/05 05:12:03;;;;;;;6.27;5.70;;;8.70;99.90;;;;;;4995151;28;20296;-74
2023/10/05 05:14:32;;;;;;;6.13;5.53;;;8.80;99.90;;;;;;5003562;28;20672;-74
2023/10/05 05:17:02;;;;;;;5.60;5.10;;;8.80;99.90;;;;;;5009835;28;20300;-74
2023/10/05 05:19:29;;;;;;;4.80;3.70;;;8.80;99.90;;;;;;5001929;28;20209;-74
2023/10/05 05:21:59;;;;;;;5.57;3.90;;;8.70;99.90;;;;;;5010513;28;20221;-72
2023/10/05 05:24:28;;;;;;;5.90;3.90;;;8.80;99.90;;;;;;5010455;28;20193;-74
2023/10/05 05:27:00;;;;;;;6.10;4.03;;;8.90;99.90;;;;;;4998067;28;20197;-74
2023/10/05 05:29:29;;;;;;;4.93;4.00;;;8.90;99.90;;;;;;5010725;28;20300;-74
2023/10/05 05:31:56;;;;;;;5.07;4.10;;;8.90;99.90;;;;;;5011029;28;20281;-74
2023/10/05 05:34:25;;;;;;;6.60;4.17;;;8.90;99.90;;;;;;5005270;28;20197;-72
2023/10/05 05:36:54;;;;;;;5.10;3.97;;;8.90;99.90;;;;;;5006073;28;20192;-74
2023/10/05 05:39:25;;;;;;;5.67;4.37;;;8.90;99.90;;;;;;5006519;28;20723;-73
2023/10/05 05:41:59;;;;;;;6.10;4.13;;;8.90;99.90;;;;;;4997901;28;20216;-74
2023/10/05 05:44:28;;;;;;;7.17;4.17;;;8.90;99.90;;;;;;5007986;28;20302;-75
2023/10/05 05:46:59;;;;;;;8.30;4.53;;;9.00;99.90;;;;;;5007660;28;20204;-73
2023/10/05 05:49:27;;;;;;;5.50;4.27;;;9.00;99.90;;;;;;5008257;28;20204;-75
2023/10/05 05:51:57;;;;;;;6.40;3.95;;;9.00;99.90;;;;;;4995754;28;20719;-73
2023/10/05 05:54:29;;;;;;;5.10;3.70;;;8.90;99.90;;;;;;5000792;28;20197;-75
2023/10/05 05:56:57;;;;;;;8.70;4.60;;;9.00;99.90;;;;;;5003505;28;20291;-75
2023/10/05 05:59:24;;;;;;;4.57;3.63;;;8.90;99.90;;;;;;4993396;28;20205;-75
2023/10/05 06:01:51;;;;;;;6.10;4.50;;;8.90;99.90;;;;;;5004219;28;21016;-75
2023/10/05 06:04:17;;;;;;;6.43;4.07;;;9.00;99.90;;;;;;5002004;28;20280;-75
2023/10/05 06:06:48;;;;;;;4.73;3.73;;;9.00;99.90;;;;;;5008474;28;20262;-74
2023/10/05 06:09:19;;;;;;;6.38;4.18;;;9.00;99.90;;;;;;5005902;28;20443;-75
2023/10/05 06:11:49;;;;;;;6.38;5.78;;;9.00;99.90;;;;;;4999700;28;20849;-75
2023/10/05 06:14:17;;;;;;;10.00;9.10;;;9.10;99.90;;;;;;4999529;28;20275;-75
2023/10/05 06:16:44;;;;;;;5.67;3.83;;;9.20;99.90;;;;;;5009838;28;20240;-75
2023/10/05 06:19:11;;;;;;;8.27;4.60;;;9.30;99.90;;;;;;5005342;28;20201;-75
2023/10/05 06:21:39;;;;;;;6.60;4.37;;;9.40;99.90;;;;;;5011071;28;20234;-74
2023/10/05 06:24:06;;;;;;;6.07;4.07;;;9.40;99.90;;;;;;5003338;28;20201;-75
2023/10/05 06:26:33;;;;;;;8.60;7.80;;;9.50;99.90;;;;;;4997468;28;20607;-75
2023/10/05 06:29:01;;;;;;;4.80;3.80;;;9.60;99.90;;;;;;5005227;28;20200;-75
2023/10/05 06:31:28;;;;;;;5.67;4.17;;;9.70;99.90;;;;;;4997638;28;20698;-75
2023/10/05 06:33:55;;;;;;;4.70;4.18;;;9.70;99.90;;;;;;5024076;28;20521;-75
2023/10/05 06:36:23;;;;;;;6.97;6.33;;;9.80;99.90;;;;;;5006417;28;20196;-75
2023/10/05 06:38:50;;;;;;;8.10;7.30;;;10.00;99.90;;;;;;4993238;28;20204;-75
2023/10/05 06:41:22;;;;;;;7.20;6.45;;;10.00;99.90;;;;;;4997825;28;20515;-75
2023/10/05 06:43:49;;;;;;;5.67;5.07;;;10.10;99.90;;;;;;5000400;28;20201;-75
2023/10/05 06:46:24;;;;;;;7.30;6.03;;;10.20;99.90;;;;;;5000430;28;20636;-75
2023/10/05 06:48:50;;;;;;;6.20;5.60;;;10.20;99.90;;;;;;4993450;28;20592;-75
2023/10/05 06:51:24;;;;;;;6.43;5.50;;;10.20;99.90;;;;;;4996953;28;20247;-75
2023/10/05 06:53:51;;;;;;;6.27;5.77;;;10.30;99.90;;;;;;5007995;28;20224;-75
2023/10/05 06:56:19;;;;;;;5.70;5.23;;;10.40;99.90;;;;;;4995285;28;20201;-75
2023/10/05 06:58:47;;;;;;;5.67;5.17;;;10.50;99.90;;;;;;4994146;28;20210;-75
2023/10/05 07:01:13;;;;;;;6.50;5.90;;;10.70;99.90;;;;;;4999397;28;20203;-75
2023/10/05 07:03:42;;;;;;;6.13;5.50;;;10.80;99.90;;;;;;5000836;28;20258;-75
2023/10/05 07:06:08;;;;;;;7.93;7.13;;;11.10;99.90;;;;;;5002115;28;20202;-75
2023/10/05 07:08:35;;;;;;;8.80;8.10;;;11.20;99.90;;;;;;4996444;28;20197;-75
2023/10/05 07:11:06;;;;;;;8.13;7.47;;;11.40;99.90;;;;;;5007040;28;20195;-76
2023/10/05 07:13:33;;;;;;;9.00;8.30;;;11.50;99.90;;;;;;5011105;28;20266;-75
2023/10/05 07:16:00;;;;;;;6.80;6.20;;;11.50;99.90;;;;;;5012111;28;20198;-75
2023/10/05 07:18:27;;;;;;;4.97;4.53;;;11.50;99.90;;;;;;5017151;28;20250;-75
2023/10/05 07:20:57;;;;;;;5.63;5.13;;;11.40;99.90;;;;;;5015669;28;20195;-75
2023/10/05 07:23:24;;;;;;;6.47;5.07;;;11.40;99.90;;;;;;5002303;28;20221;-75
2023/10/05 07:25:51;;;;;;;7.23;5.17;;;11.30;99.90;;;;;;5001902;28;20303;-75
2023/10/05 07:28:18;;;;;;;5.47;4.90;;;11.30;99.90;;;;;;5002379;28;20193;-76
2023/10/05 07:30:46;;;;;;;7.40;6.70;;;11.40;99.90;;;;;;5011398;28;20290;-75
2023/10/05 07:33:13;;;;;;;7.07;5.30;;;11.40;99.90;;;;;;5000685;28;20454;-76
2023/10/05 07:35:39;;;;;;;6.50;3.90;;;11.50;99.90;;;;;;5000523;28;20197;-76
2023/10/05 07:38:11;;;;;;;8.60;7.90;;;11.50;99.90;;;;;;5029636;28;20199;-75
2023/10/05 07:40:39;;;;;;;8.47;7.73;;;11.60;99.90;;;;;;4998578;28;20207;-76
2023/10/05 07:43:06;;;;;;;4.73;3.50;;;11.80;99.90;;;;;;5003620;28;20272;-75
2023/10/05 07:45:34;;;;;;;5.97;3.88;;;11.90;99.90;;;;;;5000030;28;20728;-76
2023/10/05 07:48:04;;;;;;;8.03;7.33;;;12.20;99.90;;;;;;5000945;28;20291;-80
2023/10/05 07:50:32;;;;;;;7.27;6.57;;;12.60;99.90;;;;;;4999816;28;20197;-78
2023/10/05 07:52:59;;;;;;;6.07;3.83;;;12.90;99.90;;;;;;5011137;28;20628;-79
2023/10/05 07:55:27;;;;;;;6.57;4.07;;;13.20;99.90;;;;;;4996431;28;20432;-78
2023/10/05 07:57:54;;;;;;;4.83;3.63;;;13.40;99.90;;;;;;4997250;28;20208;-76
2023/10/05 08:00:21;;;;;;;9.20;8.50;;;13.60;99.90;;;;;;5003245;28;20194;-73
2023/10/05 08:02:48;;;;;;;7.17;4.00;;;13.70;99.90;;;;;;4998351;28;20217;-76
2023/10/05 08:05:16;;;;;;;6.77;5.40;;;13.70;99.90;;;;;;5000973;28;20193;-76
2023/10/05 08:07:44;;;;;;;6.90;4.00;;;13.80;99.90;;;;;;5000568;28;20276;-76
2023/10/05 08:10:15;;;;;;;6.60;4.70;;;13.70;99.90;;;;;;5022268;28;20197;-76
2023/10/05 08:12:44;;;;;;;6.77;4.90;;;13.70;99.90;;;;;;5002496;28;20218;-76
2023/10/05 08:15:14;;;;;;;6.30;3.90;;;13.70;99.90;;;;;;5000241;28;20198;-76
2023/10/05 08:17:41;;;;;;;7.90;3.67;;;13.90;99.90;;;;;;5009955;28;20205;-76
2023/10/05 08:20:08;;;;;;;6.47;4.93;;;14.00;99.90;;;;;;4995242;28;20197;-78
2023/10/05 08:22:36;;;;;;;5.63;3.80;;;13.90;99.90;;;;;;4996835;28;20224;-78
2023/10/05 08:25:10;;;;;;;8.80;7.97;;;14.00;99.90;;;;;;5003176;28;20198;-79
2023/10/05 08:27:37;;;;;;;4.73;3.60;;;14.30;99.90;;;;;;4998123;28;20211;-75
2023/10/05 08:30:07;;;;;;;5.80;3.97;;;14.60;99.90;;;;;;5003262;28;20603;-78
2023/10/05 08:32:36;;;;;;;5.70;4.63;;;14.80;99.90;;;;;;5012740;28;20284;-78
2023/10/05 08:35:07;;;;;;;6.67;5.97;;;15.00;99.90;;;;;;5005408;28;20214;-78
2023/10/05 08:37:37;;;;;;;4.67;4.20;;;15.20;99.90;;;;;;5012365;28;20227;-78
2023/10/05 08:40:06;;;;;;;5.13;3.97;;;15.30;99.90;;;;;;4999400;28;20258;-78
2023/10/05 08:42:34;;;;;;;8.20;7.47;;;15.30;99.90;;;;;;5004465;28;20674;-78
2023/10/05 08:45:02;;;;;;;7.90;7.10;;;15.30;99.90;;;;;;5006311;28;20261;-78
2023/10/05 08:47:36;;;;;;;5.67;4.33;;;15.20;99.90;;;;;;5001029;28;20586;-78
2023/10/05 08:50:05;;;;;;;5.87;4.30;;;15.30;99.90;;;;;;5001933;28;20202;-78
2023/10/05 08:52:39;;;;;;;7.23;4.30;;;15.50;99.90;;;;;;5004156;28;20255;-78
2023/10/05 08:55:10;;;;;;;5.47;4.33;;;16.10;99.90;;;;;;5004830;28;20218;-78
2023/10/05 08:57:37;;;;;;;7.20;6.57;;;16.50;99.90;;;;;;5003450;28;20207;-79
2023/10/05 09:00:14;;;;;;;5.83;3.87;;;16.60;99.90;;;;;;5000346;28;20205;-78
2023/10/05 09:02:42;;;;;;;6.67;4.27;;;17.00;99.90;;;;;;5016518;28;20300;-78
2023/10/05 09:05:14;;;;;;;5.90;5.30;;;17.20;99.90;;;;;;5014188;28;20785;-80
2023/10/05 09:07:41;;;;;;;6.80;5.77;;;17.20;99.90;;;;;;4998961;28;20201;-78
2023/10/05 09:10:15;;;;;;;4.80;3.73;;;17.30;99.90;;;;;;5001995;28;20300;-77
2023/10/05 09:12:42;;;;;;;5.77;4.30;;;17.50;99.90;;;;;;5002124;28;20251;-78
2023/10/05 09:15:21;;;;;;;6.37;5.17;;;17.80;99.90;;;;;;5001225;28;20204;-78
2023/10/05 09:18:06;;;;;;;6.80;5.33;;;18.20;99.90;;;;;;5001363;28;20205;-78
2023/10/05 09:20:36;;;;;;;9.00;8.10;;;18.30;99.90;;;;;;5008236;28;20271;-78
2023/10/05 09:23:07;;;;;;;5.93;5.33;;;18.40;99.90;;;;;;5007924;28;20219;-79
2023/10/05 09:25:35;;;;;;;4.73;3.40;;;18.40;99.90;;;;;;5007541;28;20206;-78
2023/10/05 09:28:12;;;;;;;8.33;4.70;;;18.50;99.90;;;;;;4997758;28;20218;-78
2023/10/05 09:30:54;;;;;;;7.57;6.77;;;18.40;99.90;;;;;;5013315;28;20408;-78
2023/10/05 09:33:25;;;;;;;5.07;4.03;;;18.10;99.90;;;;;;5002999;28;20222;-78
2023/10/05 09:35:52;;;;;;;5.43;3.87;;;17.90;99.90;;;;;;5008714;28;20214;-78
2023/10/05 09:38:21;;;;;;;5.10;4.27;;;17.90;99.90;;;;;;5005394;28;20682;-76
2023/10/05 09:40:48;;;;;;;6.57;3.70;;;17.90;99.90;;;;;;5008275;28;20209;-76
2023/10/05 09:43:20;;;;;;;6.20;4.47;;;17.90;99.90;;;;;;4996698;28;20225;-77
2023/10/05 09:45:52;;;;;;;7.53;4.33;;;18.00;99.90;;;;;;5006679;28;20212;-78
2023/10/05 09:48:21;;;;;;;5.23;3.40;;;17.80;99.90;;;;;;5016625;28;20203;-77
2023/10/05 09:50:49;;;;;;;6.63;3.60;;;17.70;99.90;;;;;;5027039;28;20206;-77
2023/10/05 09:53:18;;;;;;;6.57;3.63;;;17.70;99.90;;;;;;5017203;28;20658;-79
2023/10/05 09:55:49;;;;;;;5.30;3.37;;;17.70;99.90;;;;;;5021019;28;20626;-77
2023/10/05 09:58:18;;;;;;;5.00;3.20;;;17.80;99.90;;;;;;5001213;28;20207;-77
2023/10/05 10:00:55;;;;;;;4.77;2.97;;;17.60;99.90;;;;;;5009549;28;20266;-76
2023/10/05 10:03:22;;;;;;;5.57;3.77;;;17.60;99.90;;;;;;4999229;28;20219;-76
2023/10/05 10:05:55;;;;;;;3.80;3.33;;;17.60;99.90;;;;;;5017249;28;20564;-76
2023/10/05 10:08:26;;;;;;;6.00;3.60;;;17.70;99.90;;;;;;5006156;28;20287;-76
2023/10/05 10:11:03;;;;;;;4.80;3.40;;;17.60;99.90;;;;;;5005527;28;20660;-76
2023/10/05 10:13:37;;;;;;;5.77;3.90;;;17.70;99.90;;;;;;5005136;28;20682;-76
2023/10/05 10:16:17;;;;;;;7.43;3.07;;;17.60;99.90;;;;;;5003117;28;20210;-76
2023/10/05 10:18:44;;;;;;;3.93;2.90;;;17.60;99.90;;;;;;5011876;28;20258;-76
2023/10/05 10:21:24;;;;;;;4.70;3.70;;;17.60;99.90;;;;;;5023908;28;20203;-76
2023/10/05 10:24:06;;;;;;;7.47;6.77;;;17.70;99.90;;;;;;5004498;28;20236;-76
2023/10/05 10:26:40;;;;;;;6.57;5.97;;;17.70;99.90;;;;;;5006911;28;20197;-78
2023/10/05 10:29:11;;;;;;;6.90;5.00;;;17.70;99.90;;;;;;5029963;28;20209;-76
2023/10/05 10:31:43;;;;;;;5.03;4.40;;;17.70;99.90;;;;;;4998429;28;20408;-76
2023/10/05 10:34:18;;;;;;;7.63;5.23;;;17.70;99.90;;;;;;5014483;28;20515;-76
2023/10/05 10:36:53;;;;;;;4.30;3.13;;;17.70;99.90;;;;;;4998856;28;20201;-76
2023/10/05 10:39:24;;;;;;;6.13;5.43;;;17.80;99.90;;;;;;5003235;28;20259;-76
2023/10/05 10:41:56;;;;;;;7.73;7.03;;;17.90;99.90;;;;;;4998767;28;20224;-76
2023/10/05 10:44:24;;;;;;;3.87;3.10;;;17.70;99.90;;;;;;5002932;28;20197;-76
2023/10/05 10:46:54;;;;;;;8.67;7.77;;;17.80;99.90;;;;;;5002625;28;20197;-76
2023/10/05 10:49:21;;;;;;;3.57;2.43;;;17.90;99.90;;;;;;5012076;28;20202;-76
2023/10/05 10:51:49;;;;;;;4.53;3.00;;;18.00;99.90;;;;;;5001623;28;20722;-76
2023/10/05 10:54:21;;;;;;;3.97;3.27;;;18.10;99.90;;;;;;4999306;28;20220;-76
2023/10/05 10:56:48;;;;;;;4.13;2.67;;;18.10;99.90;;;;;;5002468;28;20258;-76
2023/10/05 10:59:19;;;;;;;5.77;3.97;;;18.10;99.90;;;;;;4998077;28;20238;-76
2023/10/05 11:01:52;;;;;;;7.80;7.17;;;18.10;99.90;;;;;;5000222;28;20245;-76
2023/10/05 11:04:32;;;;;;;7.90;7.20;;;18.20;99.90;;;;;;5001280;28;20198;-76
2023/10/05 11:07:05;;;;;;;4.80;3.43;;;18.10;99.90;;;;;;5000426;28;20817;-76
2023/10/05 11:09:46;;;;;;;6.20;3.30;;;18.10;99.90;;;;;;5002398;28;20211;-76
2023/10/05 11:12:17;;;;;;;4.73;2.70;;;18.10;99.90;;;;;;5004232;28;20220;-76
2023/10/05 11:14:45;;;;;;;4.17;3.10;;;18.20;99.90;;;;;;5014425;28;20229;-76
2023/10/05 11:17:31;;;;;;;7.50;6.90;;;18.30;99.90;;;;;;5011697;28;20211;-77
2023/10/05 11:20:11;;;;;;;8.10;7.30;;;18.60;99.90;;;;;;5014219;28;20203;-78
2023/10/05 11:22:42;;;;;;;8.00;7.30;;;18.50;99.90;;;;;;5010189;28;20312;-81
2023/10/05 11:25:23;;;;;;;7.30;6.60;;;18.60;99.90;;;;;;5010908;28;20201;-78
2023/10/05 11:27:55;;;;;;;5.07;3.37;;;18.70;99.90;;;;;;4996687;28;20545;-79
2023/10/05 11:30:25;;;;;;;7.63;7.03;;;18.80;99.90;;;;;;4993835;28;20224;-78
2023/10/05 11:32:56;;;;;;;8.57;7.77;;;18.90;99.90;;;;;;5011703;28;20372;-79
2023/10/05 11:35:30;;;;;;;8.03;7.33;;;18.70;99.90;;;;;;5001188;28;20227;-79
2023/10/05 11:38:03;;;;;;;9.00;8.10;;;18.80;99.90;;;;;;5001264;28;20201;-79
2023/10/05 11:40:34;;;;;;;7.77;7.17;;;18.90;99.90;;;;;;5000764;28;20729;-79
2023/10/05 11:43:04;;;;;;;8.50;7.60;;;19.10;99.90;;;;;;4998104;28;20711;-78
2023/10/05 11:45:33;;;;;;;8.47;7.60;;;19.10;99.90;;;;;;5008070;28;20286;-79
2023/10/05 11:48:11;;;;;;;8.80;8.00;;;19.10;99.90;;;;;;5005471;28;20208;-78
2023/10/05 11:50:38;;;;;;;10.03;9.13;;;19.10;99.90;;;;;;4992265;28;20251;-79
2023/10/05 11:53:11;;;;;;;8.20;7.40;;;19.00;99.90;;;;;;4991529;28;20320;-79
2023/10/05 11:55:39;;;;;;;8.30;7.40;;;18.80;99.90;;;;;;4997054;28;20216;-78
2023/10/05 11:58:08;;;;;;;7.80;7.10;;;18.70;99.90;;;;;;5007803;28;20204;-78
2023/10/05 12:00:35;;;;;;;8.40;7.60;;;18.80;99.90;;;;;;5004469;28;20279;-79
2023/10/05 12:03:02;;;;;;;8.43;7.63;;;18.90;99.90;;;;;;5003335;28;20223;-78
2023/10/05 12:05:30;;;;;;;7.73;7.10;;;18.90;99.90;;;;;;4997835;28;20254;-79
2023/10/05 12:07:59;;;;;;;8.23;7.43;;;19.10;99.90;;;;;;4999700;28;20204;-79
2023/10/05 12:10:26;;;;;;;7.80;7.07;;;19.10;99.90;;;;;;4996873;28;20674;-78
2023/10/05 12:12:55;;;;;;;8.60;7.70;;;19.20;99.90;;;;;;5001933;28;20225;-78
2023/10/05 12:15:22;;;;;;;8.33;7.53;;;19.30;99.90;;;;;;5001928;28;20213;-79
2023/10/05 12:17:49;;;;;;;8.50;7.70;;;19.30;99.90;;;;;;5008768;28;20196;-78
2023/10/05 12:20:18;;;;;;;8.40;7.43;;;19.30;99.90;;;;;;5006908;28;20690;-78
2023/10/05 12:22:45;;;;;;;8.50;7.67;;;19.10;99.90;;;;;;5014383;28;20221;-78
2023/10/05 12:25:14;;;;;;;9.70;8.40;;;19.10;99.90;;;;;;5007457;28;20679;-77
2023/10/05 12:27:41;;;;;;;8.97;7.90;;;19.20;99.90;;;;;;5009365;28;20275;-81
2023/10/05 12:30:11;;;;;;;9.33;8.30;;;19.00;99.90;;;;;;4998305;28;20216;-80
2023/10/05 12:32:39;;;;;;;11.50;7.80;;;18.80;99.90;;;;;;5012825;28;20295;-80
2023/10/05 12:35:08;;;;;;;10.07;9.07;;;18.70;99.90;;;;;;5018015;28;20224;-78
2023/10/05 12:37:35;;;;;;;10.17;8.27;;;18.60;99.90;;;;;;5018743;28;20209;-78
2023/10/05 12:40:17;;;;;;;9.00;7.70;;;18.70;99.90;;;;;;5019171;28;20219;-77
2023/10/05 12:42:49;;;;;;;8.40;7.60;;;18.80;99.90;;;;;;5017240;28;20222;-77
2023/10/05 12:45:20;;;;;;;6.67;5.93;;;18.90;99.90;;;;;;5016725;28;20207;-78
2023/10/05 12:47:48;;;;;;;8.73;7.33;;;19.00;99.90;;;;;;5004295;28;20208;-77
2023/10/05 12:50:14;;;;;;;6.93;5.60;;;19.10;99.90;;;;;;5013447;28;20196;-78
2023/10/05 12:52:41;;;;;;;6.33;4.83;;;19.00;99.90;;;;;;5016545;28;20219;-79
2023/10/05 12:55:09;;;;;;;6.87;4.70;;;19.00;99.90;;;;;;5018916;28;20216;-80
2023/10/05 12:57:36;;;;;;;7.13;5.10;;;18.90;99.90;;;;;;5016872;28;20219;-78
2023/10/05 13:00:19;;;;;;;8.33;6.37;;;18.80;99.90;;;;;;5017629;28;20257;-78
2023/10/05 13:02:51;;;;;;;8.13;7.23;;;18.60;99.90;;;;;;5015113;28;20282;-77
2023/10/05 13:05:20;;;;;;;7.30;4.50;;;18.50;99.90;;;;;;5013601;28;20226;-78
2023/10/05 13:07:48;;;;;;;6.07;3.93;;;18.40;99.90;;;;;;5006314;28;20209;-77
2023/10/05 13:10:21;;;;;;;8.00;3.83;;;18.40;99.90;;;;;;5016564;28;20202;-76